Time;durP1;ratioP1;P1;durP2;ratioP2;P2;SDS_P1;SDS_P2;PMS_P1;PMS_P2;Temp;Humidity;BMP_temperature;BMP_pressure;BME280_temperature;BME280_humidity;BME280_pressure;Samples;Min_cycle;Max_cycle;Signal;HPM_P1;HPM_P2
2022/08/12 10:49:52;;;;;;;3.85;1.73;;;;;;;;;;5083935;27;20138;-83
2022/08/12 10:52:56;;;;;;;3.60;1.88;;;;;;;;;;5046557;28;20173;-83
2022/08/12 10:55:36;;;;;;;4.18;1.73;;;;;;;;;;5062009;28;20122;-83
2022/08/12 10:58:35;;;;;;;3.60;1.58;;;;;;;;;;5053386;28;20899;-84
2022/08/12 11:01:17;;;;;;;3.17;1.85;;;;;;;;;;5047563;28;20044;-84
2022/08/12 11:04:12;;;;;;;4.50;1.45;;;;;;;;;;5053588;28;20170;-84
2022/08/12 11:07:08;;;;;;;4.05;1.67;;;;;;;;;;5062821;28;20633;-84
2022/08/12 11:09:57;;;;;;;5.13;2.50;;;;;;;;;;5066050;28;20071;-84
2022/08/12 11:12:29;;;;;;;4.57;1.60;;;;;;;;;;5048248;28;20064;-84
2022/08/12 11:15:26;;;;;;;4.20;1.85;;;;;;;;;;5062885;28;20502;-84
2022/08/12 11:18:17;;;;;;;5.63;1.92;;;;;;;;;;5065372;28;20029;-84
2022/08/12 11:20:53;;;;;;;4.07;1.77;;;;;;;;;;5033184;28;20495;-83
2022/08/12 11:23:33;;;;;;;3.08;1.50;;;;;;;;;;5065487;28;20052;-84
2022/08/12 11:26:25;;;;;;;5.05;1.77;;;;;;;;;;5050915;28;20033;-84
2022/08/12 11:29:20;;;;;;;2.97;1.63;;;;;;;;;;5054802;28;20536;-84
2022/08/12 11:31:50;;;;;;;5.55;1.67;;;;;;;;;;5033639;28;20055;-84
2022/08/12 11:35:04;;;;;;;3.45;1.77;;;;;;;;;;5057652;28;20041;-84
2022/08/12 11:37:32;;;;;;;3.63;1.60;;;;;;;;;;5065013;28;20052;-84
2022/08/12 11:40:30;;;;;;;6.10;1.65;;;;;;;;;;5057243;28;20048;-84
2022/08/12 11:42:59;;;;;;;4.25;1.73;;;;;;;;;;5032543;28;20041;-84
2022/08/12 11:45:47;;;;;;;5.78;1.50;;;;;;;;;;5053401;28;20077;-84
2022/08/12 11:48:19;;;;;;;6.47;1.58;;;;;;;;;;5057359;28;20060;-84
2022/08/12 11:51:13;;;;;;;3.58;1.65;;;;;;;;;;5056741;28;20033;-84
2022/08/12 11:53:47;;;;;;;9.68;3.25;;;;;;;;;;5059678;28;20049;-84
2022/08/12 11:56:26;;;;;;;3.75;1.63;;;;;;;;;;5050149;28;20164;-84
2022/08/12 11:59:10;;;;;;;4.30;1.80;;;;;;;;;;5055825;28;20132;-83
2022/08/12 12:02:03;;;;;;;4.97;1.80;;;;;;;;;;5028084;28;20469;-83
2022/08/12 12:04:31;;;;;;;3.53;1.73;;;;;;;;;;5026520;28;20071;-83
2022/08/12 12:07:01;;;;;;;4.03;1.42;;;;;;;;;;5041095;28;20471;-84
2022/08/12 12:09:35;;;;;;;4.28;1.77;;;;;;;;;;5040262;28;20048;-84
2022/08/12 12:12:21;;;;;;;2.58;1.55;;;;;;;;;;5052124;28;20072;-83
2022/08/12 12:14:51;;;;;;;5.85;1.60;;;;;;;;;;5018864;28;20060;-84
2022/08/12 12:17:26;;;;;;;5.68;1.48;;;;;;;;;;5043304;28;20178;-83
2022/08/12 12:20:08;;;;;;;5.07;1.75;;;;;;;;;;5021528;28;20045;-84
2022/08/12 12:22:40;;;;;;;3.03;1.70;;;;;;;;;;5032199;28;20053;-84
2022/08/12 12:25:11;;;;;;;3.50;1.60;;;;;;;;;;5040151;28;20139;-84
2022/08/12 12:27:50;;;;;;;3.30;1.38;;;;;;;;;;5049445;28;20067;-84
2022/08/12 12:30:34;;;;;;;6.55;1.75;;;;;;;;;;5041122;28;20507;-84
2022/08/12 12:33:02;;;;;;;2.92;1.45;;;;;;;;;;5043512;28;20124;-83
2022/08/12 12:36:00;;;;;;;2.38;1.50;;;;;;;;;;5040001;28;20143;-84
2022/08/12 12:38:54;;;;;;;2.88;1.70;;;;;;;;;;5043125;28;20049;-83
2022/08/12 12:41:28;;;;;;;4.53;1.55;;;;;;;;;;5049542;28;20119;-83
2022/08/12 12:44:16;;;;;;;4.25;1.83;;;;;;;;;;5050468;28;20115;-83
2022/08/12 12:47:07;;;;;;;5.05;1.90;;;;;;;;;;5051946;28;20053;-84
2022/08/12 12:49:59;;;;;;;8.07;1.98;;;;;;;;;;5036033;28;20045;-84
2022/08/12 12:52:32;;;;;;;4.32;1.67;;;;;;;;;;5039667;28;20124;-83
2022/08/12 12:55:29;;;;;;;4.38;1.75;;;;;;;;;;5042012;28;20508;-83
2022/08/12 12:58:03;;;;;;;5.65;1.92;;;;;;;;;;5055459;28;20040;-83
2022/08/12 13:01:05;;;;;;;3.97;1.65;;;;;;;;;;5053850;28;20041;-83
2022/08/12 13:04:32;;;;;;;3.13;1.63;;;;;;;;;;5038573;28;20053;-83
2022/08/12 13:07:01;;;;;;;4.47;1.63;;;;;;;;;;5040074;28;20045;-82
2022/08/12 13:09:43;;;;;;;3.28;1.70;;;;;;;;;;5039876;28;20067;-83
2022/08/12 13:13:08;;;;;;;3.05;1.50;;;;;;;;;;5061471;28;20049;-82
2022/08/12 13:16:03;;;;;;;3.20;1.60;;;;;;;;;;5018308;28;20064;-83
2022/08/12 13:18:56;;;;;;;3.05;1.40;;;;;;;;;;5047784;28;20035;-82
2022/08/12 13:24:39;;;;;;;6.18;1.60;;;;;;;;;;5057244;28;20045;-82
2022/08/12 13:27:42;;;;;;;2.92;1.50;;;;;;;;;;5037717;28;20048;-83
2022/08/12 13:30:19;;;;;;;5.35;1.50;;;;;;;;;;5040145;28;20502;-82
2022/08/12 13:33:01;;;;;;;3.75;1.50;;;;;;;;;;5040450;28;20037;-82
2022/08/12 13:35:34;;;;;;;3.25;1.60;;;;;;;;;;5048410;28;20045;-83
2022/08/12 13:38:42;;;;;;;8.15;1.65;;;;;;;;;;5039964;28;20037;-82
2022/08/12 13:41:31;;;;;;;3.08;1.50;;;;;;;;;;5037793;28;20124;-83
2022/08/12 13:44:01;;;;;;;3.72;2.00;;;;;;;;;;5020812;28;20040;-83
2022/08/12 13:46:29;;;;;;;4.22;2.03;;;;;;;;;;5042645;28;20040;-82
2022/08/12 13:48:57;;;;;;;6.00;1.60;;;;;;;;;;5044681;28;20109;-82
2022/08/12 13:51:38;;;;;;;3.72;1.60;;;;;;;;;;5041191;28;20487;-82
2022/08/12 13:54:08;;;;;;;6.72;1.60;;;;;;;;;;5051319;28;20095;-82
2022/08/12 13:56:45;;;;;;;3.20;1.92;;;;;;;;;;5041560;28;20045;-82
2022/08/12 14:00:04;;;;;;;5.15;1.92;;;;;;;;;;5037745;28;20032;-82
2022/08/12 14:02:37;;;;;;;2.33;1.42;;;;;;;;;;5037830;28;20124;-82
2022/08/12 14:05:09;;;;;;;5.30;1.77;;;;;;;;;;5036897;28;20047;-82
2022/08/12 14:08:06;;;;;;;3.20;1.63;;;;;;;;;;5035303;28;20044;-82
2022/08/12 14:10:38;;;;;;;4.32;1.70;;;;;;;;;;5041347;28;20061;-82
2022/08/12 14:13:21;;;;;;;3.40;1.52;;;;;;;;;;5041686;28;20052;-82
2022/08/12 14:16:11;;;;;;;2.70;1.52;;;;;;;;;;5046679;28;20040;-82
2022/08/12 14:19:04;;;;;;;3.35;1.85;;;;;;;;;;5039798;28;20032;-82
2022/08/12 14:22:16;;;;;;;2.85;1.35;;;;;;;;;;5039136;28;20203;-82
2022/08/12 14:24:51;;;;;;;4.93;1.80;;;;;;;;;;5040630;28;20067;-82
2022/08/12 14:27:19;;;;;;;4.38;1.45;;;;;;;;;;5026489;28;20483;-82
2022/08/12 14:30:11;;;;;;;4.28;1.80;;;;;;;;;;5030085;28;20045;-82
2022/08/12 14:32:43;;;;;;;5.30;1.80;;;;;;;;;;5037157;28;20576;-82
2022/08/12 14:35:18;;;;;;;3.63;1.67;;;;;;;;;;5047974;28;20050;-82
2022/08/12 14:37:48;;;;;;;4.25;1.70;;;;;;;;;;5049721;28;20052;-82
2022/08/12 14:40:27;;;;;;;3.65;1.48;;;;;;;;;;5041019;28;20037;-82
2022/08/12 14:42:57;;;;;;;4.40;1.50;;;;;;;;;;5041520;28;20055;-82
2022/08/12 14:45:30;;;;;;;4.00;1.60;;;;;;;;;;5049339;28;20048;-82
2022/08/12 14:48:17;;;;;;;3.00;1.60;;;;;;;;;;5035248;28;20502;-82
2022/08/12 14:50:46;;;;;;;2.58;1.55;;;;;;;;;;5033765;28;20128;-82
2022/08/12 14:54:00;;;;;;;3.33;1.38;;;;;;;;;;5042608;28;20040;-82
2022/08/12 14:56:49;;;;;;;3.60;1.75;;;;;;;;;;5040627;28;20037;-82
2022/08/12 15:02:27;;;;;;;5.30;1.70;;;;;;;;;;5039949;28;20073;-81
2022/08/12 15:04:57;;;;;;;4.93;1.63;;;;;;;;;;5049950;28;20503;-82
2022/08/12 15:07:27;;;;;;;2.78;1.52;;;;;;;;;;5040543;28;20052;-82
2022/08/12 15:10:19;;;;;;;3.03;1.58;;;;;;;;;;5033375;28;20175;-82
2022/08/12 15:12:57;;;;;;;4.05;1.80;;;;;;;;;;5034436;28;20044;-82
2022/08/12 15:15:55;;;;;;;4.20;1.52;;;;;;;;;;5041055;28;20037;-82
2022/08/12 15:18:24;;;;;;;3.25;1.65;;;;;;;;;;5039667;28;20098;-82
2022/08/12 15:21:00;;;;;;;4.53;1.67;;;;;;;;;;5041077;28;20041;-82
2022/08/12 15:23:57;;;;;;;4.95;1.60;;;;;;;;;;5038436;28;20041;-82
2022/08/12 15:26:51;;;;;;;5.82;2.40;;;;;;;;;;5038785;28;20082;-82
2022/08/12 15:29:20;;;;;;;4.38;1.67;;;;;;;;;;5036499;28;20041;-82
2022/08/12 15:31:47;;;;;;;5.88;1.67;;;;;;;;;;5012938;28;20621;-82
2022/08/12 15:34:37;;;;;;;3.65;1.80;;;;;;;;;;5043314;28;20056;-82
2022/08/12 15:37:06;;;;;;;3.67;1.55;;;;;;;;;;5054564;28;20090;-82
2022/08/12 15:39:43;;;;;;;10.75;1.73;;;;;;;;;;5036007;28;20115;-82
2022/08/12 15:42:27;;;;;;;3.10;1.60;;;;;;;;;;5046558;28;20045;-82
2022/08/12 15:45:02;;;;;;;2.85;1.50;;;;;;;;;;5053180;28;20115;-82
2022/08/12 15:47:36;;;;;;;3.55;1.70;;;;;;;;;;5053581;28;20045;-82
2022/08/12 15:50:22;;;;;;;3.35;1.60;;;;;;;;;;5040052;28;20044;-82
2022/08/12 15:52:55;;;;;;;3.90;1.60;;;;;;;;;;5036970;28;20847;-82
2022/08/12 15:55:25;;;;;;;7.00;1.60;;;;;;;;;;5045952;28;20087;-83
2022/08/12 15:58:00;;;;;;;4.00;1.70;;;;;;;;;;5052849;28;20037;-82
2022/08/12 16:00:35;;;;;;;5.47;2.33;;;;;;;;;;5043646;28;20038;-82
2022/08/12 16:03:06;;;;;;;3.75;1.50;;;;;;;;;;5058773;28;20975;-82
2022/08/12 16:05:39;;;;;;;5.05;2.28;;;;;;;;;;5054182;28;20126;-82
2022/08/12 16:08:53;;;;;;;6.97;2.13;;;;;;;;;;5036605;28;20491;-83
2022/08/12 16:11:21;;;;;;;5.60;1.83;;;;;;;;;;5055861;28;20048;-83
2022/08/12 16:13:52;;;;;;;7.25;1.95;;;;;;;;;;5041300;28;20989;-83
2022/08/12 16:16:50;;;;;;;8.63;1.70;;;;;;;;;;5041136;28;20048;-83
2022/08/12 16:19:18;;;;;;;5.97;1.95;;;;;;;;;;5039169;28;20037;-83
2022/08/12 16:22:05;;;;;;;5.22;2.00;;;;;;;;;;5040200;28;20067;-83
2022/08/12 16:24:59;;;;;;;5.82;1.65;;;;;;;;;;5032642;28;20076;-83
2022/08/12 16:27:54;;;;;;;4.65;2.17;;;;;;;;;;5039464;28;20186;-83
2022/08/12 16:30:29;;;;;;;3.60;1.70;;;;;;;;;;5030644;28;20040;-83
2022/08/12 16:33:15;;;;;;;5.22;1.80;;;;;;;;;;5037100;28;20124;-83
2022/08/12 16:35:45;;;;;;;4.07;2.13;;;;;;;;;;5038694;28;20052;-83
2022/08/12 16:38:15;;;;;;;7.05;1.90;;;;;;;;;;5042309;28;20055;-83
2022/08/12 16:41:00;;;;;;;7.03;1.70;;;;;;;;;;5035881;28;20064;-83
2022/08/12 16:43:30;;;;;;;4.15;1.80;;;;;;;;;;5017304;28;20053;-82
2022/08/12 16:46:06;;;;;;;4.10;1.67;;;;;;;;;;5040167;28;20491;-82
2022/08/12 16:48:53;;;;;;;5.47;1.90;;;;;;;;;;5041319;28;20047;-83
2022/08/12 16:51:25;;;;;;;5.28;2.30;;;;;;;;;;5041950;28;20076;-82
2022/08/12 16:54:09;;;;;;;4.20;1.80;;;;;;;;;;5041510;28;20463;-83
2022/08/12 16:56:44;;;;;;;3.78;1.63;;;;;;;;;;5056023;28;20048;-83
2022/08/12 16:59:27;;;;;;;5.18;1.77;;;;;;;;;;5036419;28;20127;-83
2022/08/12 17:02:17;;;;;;;3.60;1.70;;;;;;;;;;5027939;28;20838;-82
2022/08/12 17:05:02;;;;;;;5.10;1.92;;;;;;;;;;5039393;28;20052;-82
2022/08/12 17:07:36;;;;;;;4.85;1.77;;;;;;;;;;5039825;28;20091;-82
2022/08/12 17:10:37;;;;;;;3.40;1.90;;;;;;;;;;5042793;28;20033;-82
2022/08/12 17:13:09;;;;;;;2.85;1.55;;;;;;;;;;5045616;28;20129;-82
2022/08/12 17:16:01;;;;;;;3.67;1.60;;;;;;;;;;5041962;28;20043;-82
2022/08/12 17:19:08;;;;;;;6.40;1.80;;;;;;;;;;5047781;28;20399;-82
2022/08/12 17:21:37;;;;;;;7.65;1.73;;;;;;;;;;5039422;28;20116;-82
2022/08/12 17:24:52;;;;;;;6.57;1.63;;;;;;;;;;5038703;28;20522;-83
2022/08/12 17:27:31;;;;;;;6.85;2.03;;;;;;;;;;5036530;28;20439;-82
2022/08/12 17:30:27;;;;;;;4.50;1.70;;;;;;;;;;5053116;28;20052;-82
2022/08/12 17:33:43;;;;;;;3.55;1.80;;;;;;;;;;5042003;28;20035;-82
2022/08/12 17:36:13;;;;;;;5.35;1.80;;;;;;;;;;5045388;28;20386;-81
2022/08/12 17:38:42;;;;;;;5.45;1.80;;;;;;;;;;5061357;28;20048;-81
2022/08/12 17:41:43;;;;;;;6.72;2.72;;;;;;;;;;5043504;28;20183;-82
2022/08/12 17:44:39;;;;;;;7.30;2.92;;;;;;;;;;5040215;28;20045;-83
2022/08/12 17:47:17;;;;;;;4.72;1.88;;;;;;;;;;5035977;28;20041;-83
2022/08/12 17:50:32;;;;;;;3.67;1.90;;;;;;;;;;5049944;28;20040;-83
2022/08/12 17:53:00;;;;;;;3.53;1.60;;;;;;;;;;5039826;28;20072;-84
2022/08/12 17:55:31;;;;;;;4.45;2.00;;;;;;;;;;5041861;28;20498;-84
2022/08/12 17:58:41;;;;;;;3.10;1.65;;;;;;;;;;5051937;28;20558;-83
2022/08/12 18:01:26;;;;;;;5.15;1.90;;;;;;;;;;5013789;28;20060;-84
2022/08/12 18:04:08;;;;;;;11.70;2.15;;;;;;;;;;5023327;28;20045;-83
2022/08/12 18:06:51;;;;;;;8.48;2.53;;;;;;;;;;5038113;28;20065;-83
2022/08/12 18:09:21;;;;;;;7.30;1.77;;;;;;;;;;5023957;28;20141;-83
2022/08/12 18:14:59;;;;;;;5.75;2.05;;;;;;;;;;5038152;28;20391;-83
2022/08/12 18:17:29;;;;;;;4.87;1.77;;;;;;;;;;5038211;28;20462;-83
2022/08/12 18:20:04;;;;;;;3.63;1.77;;;;;;;;;;5051713;28;20295;-84
2022/08/12 18:22:40;;;;;;;3.40;1.70;;;;;;;;;;5052678;28;20045;-83
2022/08/12 18:25:12;;;;;;;5.57;1.73;;;;;;;;;;5053425;28;20104;-83
2022/08/12 18:28:00;;;;;;;6.72;2.40;;;;;;;;;;5037264;28;20056;-83
2022/08/12 18:30:45;;;;;;;8.60;1.80;;;;;;;;;;5040316;28;20037;-83
2022/08/12 18:33:25;;;;;;;6.78;1.92;;;;;;;;;;5048136;28;20044;-83
2022/08/12 18:35:54;;;;;;;5.32;1.67;;;;;;;;;;5036935;28;20076;-83
2022/08/12 18:38:30;;;;;;;4.80;1.67;;;;;;;;;;5039598;28;20495;-83
2022/08/12 18:44:09;;;;;;;7.43;2.00;;;;;;;;;;5052069;28;20056;-84
2022/08/12 18:46:53;;;;;;;5.43;2.08;;;;;;;;;;5029596;28;21930;-84
2022/08/12 18:49:30;;;;;;;5.20;1.73;;;;;;;;;;5044226;28;20459;-85
2022/08/12 18:52:43;;;;;;;5.75;1.70;;;;;;;;;;5027909;28;20095;-85
2022/08/12 19:06:08;;;;;;;5.38;1.92;;;;;;;;;;5039841;28;20044;-86
2022/08/12 19:14:23;;;;;;;4.20;1.95;;;;;;;;;;4999140;28;20054;-87
2022/08/12 19:15:52;;;;;;;7.00;1.88;;;;;;;;;;4994338;28;20069;-87
2022/08/12 19:21:04;;;;;;;3.08;1.70;;;;;;;;;;4918954;29;20039;-86
2022/08/12 19:25:59;;;;;;;5.68;1.88;;;;;;;;;;4904672;29;20047;-87
2022/08/12 19:34:46;;;;;;;6.65;1.98;;;;;;;;;;4812868;29;19920;-86
2022/08/12 19:39:35;;;;;;;4.10;1.98;;;;;;;;;;4832362;29;20046;-87
2022/08/12 20:20:21;;;;;;;3.63;1.80;;;;;;;;;;4934105;28;20085;-88
2022/08/12 20:28:24;;;;;;;3.42;1.92;;;;;;;;;;4899296;29;20059;-86
2022/08/12 20:32:53;;;;;;;4.30;2.17;;;;;;;;;;4897139;29;20052;-86
2022/08/12 20:37:44;;;;;;;4.45;2.00;;;;;;;;;;4840750;29;20049;-88
2022/08/12 20:42:46;;;;;;;4.57;1.98;;;;;;;;;;4809332;29;20045;-86
2022/08/12 20:47:15;;;;;;;5.30;1.65;;;;;;;;;;4734578;30;20416;-86
2022/08/12 21:01:51;;;;;;;5.40;2.33;;;;;;;;;;4676021;30;20481;-86
2022/08/12 21:33:55;;;;;;;3.72;2.20;;;;;;;;;;4769120;30;20131;-86
